sensor_id;sensor_type;location;lat;lon;timestamp;pressure;altitude;pressure_sealevel;temperature;humidity
79465;BME280;68932;47.410;8.232;2023-05-29T00:00:09;96623.93;;;15.60;47.53
79465;BME280;68932;47.410;8.232;2023-05-29T00:02:37;96623.25;;;15.58;47.54
79465;BME280;68932;47.410;8.232;2023-05-29T00:05:06;96624.23;;;15.55;47.21
79465;BME280;68932;47.410;8.232;2023-05-29T00:07:35;96627.95;;;15.53;47.57
79465;BME280;68932;47.410;8.232;2023-05-29T00:10:04;96631.19;;;15.50;47.70
79465;BME280;68932;47.410;8.232;2023-05-29T00:12:32;96625.91;;;15.48;47.74
79465;BME280;68932;47.410;8.232;2023-05-29T00:15:00;96629.20;;;15.47;47.44
79465;BME280;68932;47.410;8.232;2023-05-29T00:17:29;96633.50;;;15.46;47.50
79465;BME280;68932;47.410;8.232;2023-05-29T00:19:57;96635.26;;;15.44;47.49
79465;BME280;68932;47.410;8.232;2023-05-29T00:22:26;96636.28;;;15.43;47.40
79465;BME280;68932;47.410;8.232;2023-05-29T00:24:54;96631.16;;;15.41;47.87
79465;BME280;68932;47.410;8.232;2023-05-29T00:27:22;96632.73;;;15.39;47.74
79465;BME280;68932;47.410;8.232;2023-05-29T00:29:51;96630.24;;;15.37;47.77
79465;BME280;68932;47.410;8.232;2023-05-29T00:32:19;96631.08;;;15.36;48.12
79465;BME280;68932;47.410;8.232;2023-05-29T00:34:48;96626.79;;;15.33;48.08
79465;BME280;68932;47.410;8.232;2023-05-29T00:37:16;96630.03;;;15.30;48.41
79465;BME280;68932;47.410;8.232;2023-05-29T00:39:44;96630.15;;;15.27;48.22
79465;BME280;68932;47.410;8.232;2023-05-29T00:42:12;96631.61;;;15.24;47.64
79465;BME280;68932;47.410;8.232;2023-05-29T00:44:41;96633.75;;;15.24;47.26
79465;BME280;68932;47.410;8.232;2023-05-29T00:47:09;96635.39;;;15.24;47.58
79465;BME280;68932;47.410;8.232;2023-05-29T00:49:39;96635.77;;;15.23;47.30
79465;BME280;68932;47.410;8.232;2023-05-29T00:52:08;96637.35;;;15.23;47.66
79465;BME280;68932;47.410;8.232;2023-05-29T00:54:38;96636.04;;;15.22;47.41
79465;BME280;68932;47.410;8.232;2023-05-29T00:57:07;96636.98;;;15.24;46.62
79465;BME280;68932;47.410;8.232;2023-05-29T00:59:35;96635.96;;;15.25;46.16
79465;BME280;68932;47.410;8.232;2023-05-29T01:02:04;96637.88;;;15.27;46.59
79465;BME280;68932;47.410;8.232;2023-05-29T01:04:32;96636.83;;;15.27;46.69
79465;BME280;68932;47.410;8.232;2023-05-29T01:07:01;96638.21;;;15.28;46.63
79465;BME280;68932;47.410;8.232;2023-05-29T01:09:30;96638.08;;;15.27;46.56
79465;BME280;68932;47.410;8.232;2023-05-29T01:12:07;96636.63;;;15.26;46.61
79465;BME280;68932;47.410;8.232;2023-05-29T01:14:41;96632.76;;;15.23;46.37
79465;BME280;68932;47.410;8.232;2023-05-29T01:17:19;96632.40;;;15.21;46.60
79465;BME280;68932;47.410;8.232;2023-05-29T01:20:10;96633.72;;;15.18;46.63
79465;BME280;68932;47.410;8.232;2023-05-29T01:22:58;96634.16;;;15.15;47.11
79465;BME280;68932;47.410;8.232;2023-05-29T01:25:41;96636.14;;;15.13;47.31
79465;BME280;68932;47.410;8.232;2023-05-29T01:28:17;96634.41;;;15.10;46.81
79465;BME280;68932;47.410;8.232;2023-05-29T01:30:48;96631.73;;;15.09;47.33
79465;BME280;68932;47.410;8.232;2023-05-29T01:33:17;96631.25;;;15.06;47.82
79465;BME280;68932;47.410;8.232;2023-05-29T01:35:45;96630.69;;;15.03;47.63
79465;BME280;68932;47.410;8.232;2023-05-29T01:38:14;96629.22;;;15.00;47.52
79465;BME280;68932;47.410;8.232;2023-05-29T01:40:42;96629.57;;;14.96;47.88
79465;BME280;68932;47.410;8.232;2023-05-29T01:43:11;96628.91;;;14.91;48.27
79465;BME280;68932;47.410;8.232;2023-05-29T01:45:40;96624.33;;;14.87;48.16
79465;BME280;68932;47.410;8.232;2023-05-29T01:48:09;96622.38;;;14.83;48.21
79465;BME280;68932;47.410;8.232;2023-05-29T01:50:38;96619.85;;;14.80;47.90
79465;BME280;68932;47.410;8.232;2023-05-29T01:53:06;96623.48;;;14.76;47.81
79465;BME280;68932;47.410;8.232;2023-05-29T01:55:35;96622.56;;;14.75;47.66
79465;BME280;68932;47.410;8.232;2023-05-29T01:58:04;96625.70;;;14.75;47.64
79465;BME280;68932;47.410;8.232;2023-05-29T02:00:33;96625.83;;;14.74;47.84
79465;BME280;68932;47.410;8.232;2023-05-29T02:03:02;96624.91;;;14.72;48.33
79465;BME280;68932;47.410;8.232;2023-05-29T02:05:30;96628.94;;;14.69;48.95
79465;BME280;68932;47.410;8.232;2023-05-29T02:07:59;96631.36;;;14.64;49.30
79465;BME280;68932;47.410;8.232;2023-05-29T02:10:27;96632.31;;;14.59;49.26
79465;BME280;68932;47.410;8.232;2023-05-29T02:12:55;96630.28;;;14.55;49.08
79465;BME280;68932;47.410;8.232;2023-05-29T02:15:23;96625.02;;;14.53;49.02
79465;BME280;68932;47.410;8.232;2023-05-29T02:17:52;96624.46;;;14.49;49.29
79465;BME280;68932;47.410;8.232;2023-05-29T02:20:20;96618.13;;;14.45;49.61
79465;BME280;68932;47.410;8.232;2023-05-29T02:22:48;96616.95;;;14.40;49.49
79465;BME280;68932;47.410;8.232;2023-05-29T02:25:17;96618.30;;;14.36;48.90
79465;BME280;68932;47.410;8.232;2023-05-29T02:27:45;96617.14;;;14.36;48.88
79465;BME280;68932;47.410;8.232;2023-05-29T02:30:14;96620.09;;;14.34;49.52
79465;BME280;68932;47.410;8.232;2023-05-29T02:32:42;96623.09;;;14.32;49.74
79465;BME280;68932;47.410;8.232;2023-05-29T02:35:11;96620.54;;;14.29;49.96
79465;BME280;68932;47.410;8.232;2023-05-29T02:37:39;96620.13;;;14.26;50.15
79465;BME280;68932;47.410;8.232;2023-05-29T02:40:11;96614.70;;;14.21;50.30
79465;BME280;68932;47.410;8.232;2023-05-29T02:42:38;96615.98;;;14.20;50.30
79465;BME280;68932;47.410;8.232;2023-05-29T02:45:08;96611.69;;;14.17;50.20
79465;BME280;68932;47.410;8.232;2023-05-29T02:47:37;96616.59;;;14.13;50.25
79465;BME280;68932;47.410;8.232;2023-05-29T02:50:07;96617.73;;;14.10;50.49
79465;BME280;68932;47.410;8.232;2023-05-29T02:52:35;96617.84;;;14.07;50.83
79465;BME280;68932;47.410;8.232;2023-05-29T02:55:05;96622.45;;;14.05;50.70
79465;BME280;68932;47.410;8.232;2023-05-29T02:57:33;96617.72;;;14.03;50.83
79465;BME280;68932;47.410;8.232;2023-05-29T03:00:02;96620.37;;;14.00;51.06
79465;BME280;68932;47.410;8.232;2023-05-29T03:02:31;96621.14;;;13.97;51.08
79465;BME280;68932;47.410;8.232;2023-05-29T03:05:00;96623.23;;;13.95;50.77
79465;BME280;68932;47.410;8.232;2023-05-29T03:07:28;96626.71;;;13.94;51.24
79465;BME280;68932;47.410;8.232;2023-05-29T03:09:56;96627.76;;;13.92;51.34
79465;BME280;68932;47.410;8.232;2023-05-29T03:12:25;96627.69;;;13.91;51.46
79465;BME280;68932;47.410;8.232;2023-05-29T03:14:53;96629.31;;;13.88;51.72
79465;BME280;68932;47.410;8.232;2023-05-29T03:17:21;96624.05;;;13.86;51.44
79465;BME280;68932;47.410;8.232;2023-05-29T03:19:49;96622.21;;;13.85;51.65
79465;BME280;68932;47.410;8.232;2023-05-29T03:22:18;96618.52;;;13.85;51.22
79465;BME280;68932;47.410;8.232;2023-05-29T03:24:46;96619.98;;;13.86;51.13
79465;BME280;68932;47.410;8.232;2023-05-29T03:27:14;96621.02;;;13.88;51.35
79465;BME280;68932;47.410;8.232;2023-05-29T03:29:43;96621.77;;;13.90;50.99
79465;BME280;68932;47.410;8.232;2023-05-29T03:32:11;96623.27;;;13.91;51.32
79465;BME280;68932;47.410;8.232;2023-05-29T03:34:39;96623.73;;;13.90;51.73
79465;BME280;68932;47.410;8.232;2023-05-29T03:37:08;96625.16;;;13.87;51.82
79465;BME280;68932;47.410;8.232;2023-05-29T03:39:36;96625.26;;;13.86;51.23
79465;BME280;68932;47.410;8.232;2023-05-29T03:42:05;96622.52;;;13.87;50.88
79465;BME280;68932;47.410;8.232;2023-05-29T03:44:33;96627.48;;;13.89;51.22
79465;BME280;68932;47.410;8.232;2023-05-29T03:47:02;96625.07;;;13.90;51.15
79465;BME280;68932;47.410;8.232;2023-05-29T03:49:30;96626.18;;;13.92;50.84
79465;BME280;68932;47.410;8.232;2023-05-29T03:51:58;96625.80;;;13.94;50.94
79465;BME280;68932;47.410;8.232;2023-05-29T03:54:27;96625.61;;;13.97;51.06
79465;BME280;68932;47.410;8.232;2023-05-29T03:56:55;96625.62;;;13.98;51.04
79465;BME280;68932;47.410;8.232;2023-05-29T03:59:23;96627.65;;;13.99;51.27
79465;BME280;68932;47.410;8.232;2023-05-29T04:01:51;96627.96;;;14.00;51.51
79465;BME280;68932;47.410;8.232;2023-05-29T04:04:20;96630.64;;;14.00;51.63
79465;BME280;68932;47.410;8.232;2023-05-29T04:06:48;96629.23;;;13.99;51.40
79465;BME280;68932;47.410;8.232;2023-05-29T04:09:16;96634.29;;;14.01;51.82
79465;BME280;68932;47.410;8.232;2023-05-29T04:11:45;96639.42;;;14.00;51.78
79465;BME280;68932;47.410;8.232;2023-05-29T04:14:13;96644.15;;;14.01;52.11
79465;BME280;68932;47.410;8.232;2023-05-29T04:16:41;96642.80;;;14.02;52.25
79465;BME280;68932;47.410;8.232;2023-05-29T04:19:09;96646.34;;;14.04;52.53
79465;BME280;68932;47.410;8.232;2023-05-29T04:21:38;96645.61;;;14.06;52.45
79465;BME280;68932;47.410;8.232;2023-05-29T04:24:07;96646.60;;;14.09;52.57
79465;BME280;68932;47.410;8.232;2023-05-29T04:26:35;96645.99;;;14.12;52.54
79465;BME280;68932;47.410;8.232;2023-05-29T04:29:04;96649.39;;;14.15;52.49
79465;BME280;68932;47.410;8.232;2023-05-29T04:31:32;96650.95;;;14.18;52.70
79465;BME280;68932;47.410;8.232;2023-05-29T04:34:01;96658.38;;;14.22;52.47
79465;BME280;68932;47.410;8.232;2023-05-29T04:36:29;96658.73;;;14.26;52.04
79465;BME280;68932;47.410;8.232;2023-05-29T04:38:57;96667.19;;;14.32;52.24
79465;BME280;68932;47.410;8.232;2023-05-29T04:41:26;96672.34;;;14.37;52.48
79465;BME280;68932;47.410;8.232;2023-05-29T04:43:55;96672.43;;;14.43;52.06
79465;BME280;68932;47.410;8.232;2023-05-29T04:46:23;96676.14;;;14.49;52.08
79465;BME280;68932;47.410;8.232;2023-05-29T04:48:51;96676.85;;;14.55;51.77
79465;BME280;68932;47.410;8.232;2023-05-29T04:51:20;96680.12;;;14.62;51.35
79465;BME280;68932;47.410;8.232;2023-05-29T04:53:48;96680.67;;;14.70;51.37
79465;BME280;68932;47.410;8.232;2023-05-29T04:56:17;96680.73;;;14.78;50.88
79465;BME280;68932;47.410;8.232;2023-05-29T04:58:45;96679.10;;;14.86;50.33
79465;BME280;68932;47.410;8.232;2023-05-29T05:01:13;96680.16;;;14.94;49.72
79465;BME280;68932;47.410;8.232;2023-05-29T05:03:42;96680.84;;;15.03;50.35
79465;BME280;68932;47.410;8.232;2023-05-29T05:06:11;96680.95;;;15.11;50.50
79465;BME280;68932;47.410;8.232;2023-05-29T05:08:39;96681.05;;;15.20;51.16
79465;BME280;68932;47.410;8.232;2023-05-29T05:11:08;96683.91;;;15.30;51.20
79465;BME280;68932;47.410;8.232;2023-05-29T05:13:36;96684.17;;;15.41;50.87
79465;BME280;68932;47.410;8.232;2023-05-29T05:16:05;96689.71;;;15.51;50.06
79465;BME280;68932;47.410;8.232;2023-05-29T05:18:34;96692.52;;;15.62;50.19
79465;BME280;68932;47.410;8.232;2023-05-29T05:21:02;96691.25;;;15.72;50.34
79465;BME280;68932;47.410;8.232;2023-05-29T05:23:31;96693.95;;;15.83;50.10
79465;BME280;68932;47.410;8.232;2023-05-29T05:25:59;96693.56;;;15.95;50.29
79465;BME280;68932;47.410;8.232;2023-05-29T05:28:27;96697.80;;;16.07;50.37
79465;BME280;68932;47.410;8.232;2023-05-29T05:30:56;96694.91;;;16.17;50.19
79465;BME280;68932;47.410;8.232;2023-05-29T05:33:24;96692.98;;;16.28;48.94
79465;BME280;68932;47.410;8.232;2023-05-29T05:35:52;96697.80;;;16.39;48.36
79465;BME280;68932;47.410;8.232;2023-05-29T05:38:21;96695.95;;;16.51;48.38
79465;BME280;68932;47.410;8.232;2023-05-29T05:40:49;96696.73;;;16.62;48.26
79465;BME280;68932;47.410;8.232;2023-05-29T05:43:17;96703.03;;;16.73;48.25
79465;BME280;68932;47.410;8.232;2023-05-29T05:45:46;96701.88;;;16.86;47.71
79465;BME280;68932;47.410;8.232;2023-05-29T05:48:14;96699.33;;;16.98;48.28
79465;BME280;68932;47.410;8.232;2023-05-29T05:50:42;96704.20;;;17.10;48.82
79465;BME280;68932;47.410;8.232;2023-05-29T05:53:10;96707.04;;;17.21;47.62
79465;BME280;68932;47.410;8.232;2023-05-29T05:55:39;96707.27;;;17.28;46.26
79465;BME280;68932;47.410;8.232;2023-05-29T05:58:07;96714.95;;;17.34;46.27
79465;BME280;68932;47.410;8.232;2023-05-29T06:00:35;96719.20;;;17.43;46.28
79465;BME280;68932;47.410;8.232;2023-05-29T06:03:04;96724.41;;;17.49;45.70
79465;BME280;68932;47.410;8.232;2023-05-29T06:05:32;96722.52;;;17.52;45.44
79465;BME280;68932;47.410;8.232;2023-05-29T06:08:00;96723.41;;;17.58;46.27
79465;BME280;68932;47.410;8.232;2023-05-29T06:10:28;96724.72;;;17.69;45.45
79465;BME280;68932;47.410;8.232;2023-05-29T06:12:57;96723.94;;;17.78;45.56
79465;BME280;68932;47.410;8.232;2023-05-29T06:15:25;96724.48;;;17.85;45.15
79465;BME280;68932;47.410;8.232;2023-05-29T06:17:53;96722.04;;;17.92;44.96
79465;BME280;68932;47.410;8.232;2023-05-29T06:20:21;96720.88;;;18.01;44.62
79465;BME280;68932;47.410;8.232;2023-05-29T06:22:50;96716.85;;;18.05;44.85
79465;BME280;68932;47.410;8.232;2023-05-29T06:25:18;96718.61;;;18.12;44.96
79465;BME280;68932;47.410;8.232;2023-05-29T06:27:47;96719.59;;;18.19;44.90
79465;BME280;68932;47.410;8.232;2023-05-29T06:30:16;96722.19;;;18.26;45.03
79465;BME280;68932;47.410;8.232;2023-05-29T06:32:44;96721.10;;;18.35;44.82
79465;BME280;68932;47.410;8.232;2023-05-29T06:35:13;96724.66;;;18.40;44.73
79465;BME280;68932;47.410;8.232;2023-05-29T06:37:41;96728.65;;;18.43;44.04
79465;BME280;68932;47.410;8.232;2023-05-29T06:40:11;96732.04;;;18.40;44.09
79465;BME280;68932;47.410;8.232;2023-05-29T06:42:40;96731.77;;;18.42;44.06
79465;BME280;68932;47.410;8.232;2023-05-29T06:45:10;96733.06;;;18.47;44.15
79465;BME280;68932;47.410;8.232;2023-05-29T06:47:38;96735.30;;;18.54;44.89
79465;BME280;68932;47.410;8.232;2023-05-29T06:50:10;96730.13;;;18.63;45.28
79465;BME280;68932;47.410;8.232;2023-05-29T06:52:38;96729.31;;;18.70;44.96
79465;BME280;68932;47.410;8.232;2023-05-29T06:55:08;96729.69;;;18.72;45.00
79465;BME280;68932;47.410;8.232;2023-05-29T06:57:36;96727.96;;;18.79;45.60
79465;BME280;68932;47.410;8.232;2023-05-29T07:00:07;96727.17;;;18.89;46.10
79465;BME280;68932;47.410;8.232;2023-05-29T07:02:36;96730.40;;;19.01;45.33
79465;BME280;68932;47.410;8.232;2023-05-29T07:05:05;96732.91;;;19.07;44.21
79465;BME280;68932;47.410;8.232;2023-05-29T07:07:34;96735.05;;;19.07;43.45
79465;BME280;68932;47.410;8.232;2023-05-29T07:10:03;96734.70;;;19.05;43.98
79465;BME280;68932;47.410;8.232;2023-05-29T07:12:31;96734.04;;;19.05;44.25
79465;BME280;68932;47.410;8.232;2023-05-29T07:14:59;96733.95;;;19.09;44.61
79465;BME280;68932;47.410;8.232;2023-05-29T07:17:28;96731.83;;;19.18;44.56
79465;BME280;68932;47.410;8.232;2023-05-29T07:19:56;96729.86;;;19.28;44.32
79465;BME280;68932;47.410;8.232;2023-05-29T07:22:24;96730.99;;;19.36;44.31
79465;BME280;68932;47.410;8.232;2023-05-29T07:24:52;96735.02;;;19.45;44.32
79465;BME280;68932;47.410;8.232;2023-05-29T07:27:21;96735.20;;;19.53;44.00
79465;BME280;68932;47.410;8.232;2023-05-29T07:29:49;96733.79;;;19.60;43.54
79465;BME280;68932;47.410;8.232;2023-05-29T07:32:17;96734.86;;;19.66;43.50
79465;BME280;68932;47.410;8.232;2023-05-29T07:34:45;96735.34;;;19.74;43.89
79465;BME280;68932;47.410;8.232;2023-05-29T07:37:13;96736.23;;;19.81;44.13
79465;BME280;68932;47.410;8.232;2023-05-29T07:39:42;96734.30;;;19.90;44.12
79465;BME280;68932;47.410;8.232;2023-05-29T07:42:10;96732.20;;;19.99;43.51
79465;BME280;68932;47.410;8.232;2023-05-29T07:44:38;96730.57;;;20.02;43.02
79465;BME280;68932;47.410;8.232;2023-05-29T07:47:07;96733.14;;;20.06;43.13
79465;BME280;68932;47.410;8.232;2023-05-29T07:49:35;96731.30;;;20.10;42.20
79465;BME280;68932;47.410;8.232;2023-05-29T07:52:04;96730.56;;;20.12;42.10
79465;BME280;68932;47.410;8.232;2023-05-29T07:54:33;96730.70;;;20.15;42.31
79465;BME280;68932;47.410;8.232;2023-05-29T07:57:02;96732.67;;;20.20;42.21
79465;BME280;68932;47.410;8.232;2023-05-29T07:59:30;96734.52;;;20.23;42.40
79465;BME280;68932;47.410;8.232;2023-05-29T08:01:59;96730.08;;;20.27;42.49
79465;BME280;68932;47.410;8.232;2023-05-29T08:04:27;96726.77;;;20.28;41.91
79465;BME280;68932;47.410;8.232;2023-05-29T08:06:55;96731.11;;;20.25;41.94
79465;BME280;68932;47.410;8.232;2023-05-29T08:09:24;96731.14;;;20.21;42.08
79465;BME280;68932;47.410;8.232;2023-05-29T08:11:52;96731.05;;;20.22;42.63
79465;BME280;68932;47.410;8.232;2023-05-29T08:14:20;96727.56;;;20.26;42.27
79465;BME280;68932;47.410;8.232;2023-05-29T08:16:49;96731.90;;;20.33;42.69
79465;BME280;68932;47.410;8.232;2023-05-29T08:19:17;96733.99;;;20.39;42.17
79465;BME280;68932;47.410;8.232;2023-05-29T08:21:45;96735.27;;;20.41;41.36
79465;BME280;68932;47.410;8.232;2023-05-29T08:24:13;96735.70;;;20.42;42.02
79465;BME280;68932;47.410;8.232;2023-05-29T08:26:42;96734.55;;;20.45;41.88
79465;BME280;68932;47.410;8.232;2023-05-29T08:29:10;96733.02;;;20.51;42.59
79465;BME280;68932;47.410;8.232;2023-05-29T08:31:38;96734.11;;;20.59;43.08
79465;BME280;68932;47.410;8.232;2023-05-29T08:34:07;96735.55;;;20.69;42.46
79465;BME280;68932;47.410;8.232;2023-05-29T08:36:35;96730.57;;;20.73;41.69
79465;BME280;68932;47.410;8.232;2023-05-29T08:39:03;96735.56;;;20.79;41.90
79465;BME280;68932;47.410;8.232;2023-05-29T08:41:41;96734.02;;;20.83;42.06
79465;BME280;68932;47.410;8.232;2023-05-29T08:44:14;96734.53;;;20.91;43.03
79465;BME280;68932;47.410;8.232;2023-05-29T08:46:47;96737.53;;;21.01;42.39
79465;BME280;68932;47.410;8.232;2023-05-29T08:49:19;96736.00;;;21.09;43.29
79465;BME280;68932;47.410;8.232;2023-05-29T08:51:49;96736.33;;;21.18;43.22
79465;BME280;68932;47.410;8.232;2023-05-29T08:54:21;96740.59;;;21.27;42.00
79465;BME280;68932;47.410;8.232;2023-05-29T08:56:50;96738.64;;;21.34;42.30
79465;BME280;68932;47.410;8.232;2023-05-29T08:59:18;96740.11;;;21.40;42.04
79465;BME280;68932;47.410;8.232;2023-05-29T09:01:46;96738.78;;;21.45;42.41
79465;BME280;68932;47.410;8.232;2023-05-29T09:04:15;96739.20;;;21.54;42.29
79465;BME280;68932;47.410;8.232;2023-05-29T09:06:43;96742.05;;;21.60;41.05
79465;BME280;68932;47.410;8.232;2023-05-29T09:09:12;96744.16;;;21.65;41.07
79465;BME280;68932;47.410;8.232;2023-05-29T09:11:40;96744.29;;;21.70;41.35
79465;BME280;68932;47.410;8.232;2023-05-29T09:14:17;96748.11;;;21.74;41.40
79465;BME280;68932;47.410;8.232;2023-05-29T09:16:59;96747.65;;;21.78;40.93
79465;BME280;68932;47.410;8.232;2023-05-29T09:19:28;96746.86;;;21.82;40.79
79465;BME280;68932;47.410;8.232;2023-05-29T09:22:03;96748.16;;;21.85;39.54
79465;BME280;68932;47.410;8.232;2023-05-29T09:24:33;96747.40;;;21.85;40.30
79465;BME280;68932;47.410;8.232;2023-05-29T09:27:02;96753.02;;;21.90;40.74
79465;BME280;68932;47.410;8.232;2023-05-29T09:29:33;96752.33;;;21.95;41.04
79465;BME280;68932;47.410;8.232;2023-05-29T09:32:01;96755.57;;;22.01;40.27
79465;BME280;68932;47.410;8.232;2023-05-29T09:34:32;96761.31;;;22.04;39.51
79465;BME280;68932;47.410;8.232;2023-05-29T09:37:04;96752.87;;;22.04;39.60
79465;BME280;68932;47.410;8.232;2023-05-29T09:39:33;96752.11;;;22.06;39.79
79465;BME280;68932;47.410;8.232;2023-05-29T09:42:01;96751.98;;;22.12;40.36
79465;BME280;68932;47.410;8.232;2023-05-29T09:44:29;96750.30;;;22.17;39.38
79465;BME280;68932;47.410;8.232;2023-05-29T09:47:01;96753.61;;;22.19;39.26
79465;BME280;68932;47.410;8.232;2023-05-29T09:49:29;96757.36;;;22.19;38.82
79465;BME280;68932;47.410;8.232;2023-05-29T09:51:59;96748.52;;;22.20;38.89
79465;BME280;68932;47.410;8.232;2023-05-29T09:54:29;96746.30;;;22.21;38.97
79465;BME280;68932;47.410;8.232;2023-05-29T09:56:58;96751.34;;;22.25;39.78
79465;BME280;68932;47.410;8.232;2023-05-29T09:59:30;96746.42;;;22.32;39.42
79465;BME280;68932;47.410;8.232;2023-05-29T10:02:04;96747.43;;;22.39;39.12
79465;BME280;68932;47.410;8.232;2023-05-29T10:04:33;96748.45;;;22.46;39.26
79465;BME280;68932;47.410;8.232;2023-05-29T10:07:08;96742.30;;;22.50;39.01
79465;BME280;68932;47.410;8.232;2023-05-29T10:09:41;96735.16;;;22.55;39.11
79465;BME280;68932;47.410;8.232;2023-05-29T10:12:12;96731.32;;;22.60;39.44
79465;BME280;68932;47.410;8.232;2023-05-29T10:14:43;96734.16;;;22.68;39.16
79465;BME280;68932;47.410;8.232;2023-05-29T10:17:13;96734.23;;;22.70;38.36
79465;BME280;68932;47.410;8.232;2023-05-29T10:19:43;96728.52;;;22.71;38.59
79465;BME280;68932;47.410;8.232;2023-05-29T10:22:12;96723.78;;;22.74;38.26
79465;BME280;68932;47.410;8.232;2023-05-29T10:24:42;96724.77;;;22.77;38.57
79465;BME280;68932;47.410;8.232;2023-05-29T10:27:11;96718.48;;;22.84;39.31
79465;BME280;68932;47.410;8.232;2023-05-29T10:29:46;96722.50;;;22.88;37.79
79465;BME280;68932;47.410;8.232;2023-05-29T10:32:23;96727.40;;;22.90;38.22
79465;BME280;68932;47.410;8.232;2023-05-29T10:35:08;96722.98;;;22.93;38.23
79465;BME280;68932;47.410;8.232;2023-05-29T10:37:42;96718.87;;;22.94;37.68
79465;BME280;68932;47.410;8.232;2023-05-29T10:40:12;96709.85;;;22.92;37.99
79465;BME280;68932;47.410;8.232;2023-05-29T10:42:45;96712.33;;;22.95;38.31
79465;BME280;68932;47.410;8.232;2023-05-29T10:48:43;96708.88;;;23.10;38.32
79465;BME280;68932;47.410;8.232;2023-05-29T10:51:26;96707.28;;;23.17;38.17
79465;BME280;68932;47.410;8.232;2023-05-29T10:53:55;96709.94;;;23.23;37.99
79465;BME280;68932;47.410;8.232;2023-05-29T10:56:28;96714.93;;;23.28;37.56
79465;BME280;68932;47.410;8.232;2023-05-29T10:58:58;96704.82;;;23.32;36.64
79465;BME280;68932;47.410;8.232;2023-05-29T11:01:29;96706.11;;;23.36;36.82
79465;BME280;68932;47.410;8.232;2023-05-29T11:04:27;96698.77;;;23.42;37.10
79465;BME280;68932;47.410;8.232;2023-05-29T11:06:55;96702.62;;;23.48;36.75
79465;BME280;68932;47.410;8.232;2023-05-29T11:09:31;96700.94;;;23.58;37.17
79465;BME280;68932;47.410;8.232;2023-05-29T11:12:15;96703.30;;;23.69;36.55
79465;BME280;68932;47.410;8.232;2023-05-29T11:14:54;96707.61;;;23.77;35.39
79465;BME280;68932;47.410;8.232;2023-05-29T11:17:42;96705.61;;;23.82;36.01
79465;BME280;68932;47.410;8.232;2023-05-29T11:20:26;96701.35;;;23.89;35.79
79465;BME280;68932;47.410;8.232;2023-05-29T11:23:05;96703.01;;;23.99;35.81
79465;BME280;68932;47.410;8.232;2023-05-29T11:25:36;96702.64;;;24.08;35.72
79465;BME280;68932;47.410;8.232;2023-05-29T11:28:08;96694.86;;;24.17;35.80
79465;BME280;68932;47.410;8.232;2023-05-29T11:30:45;96703.54;;;24.26;35.15
79465;BME280;68932;47.410;8.232;2023-05-29T11:33:22;96699.95;;;24.32;34.39
79465;BME280;68932;47.410;8.232;2023-05-29T11:35:56;96704.03;;;24.37;34.51
79465;BME280;68932;47.410;8.232;2023-05-29T11:38:25;96697.92;;;24.37;34.07
79465;BME280;68932;47.410;8.232;2023-05-29T11:40:55;96697.30;;;24.38;34.50
79465;BME280;68932;47.410;8.232;2023-05-29T11:43:24;96694.75;;;24.41;34.49
79465;BME280;68932;47.410;8.232;2023-05-29T11:45:52;96698.02;;;24.43;34.08
79465;BME280;68932;47.410;8.232;2023-05-29T11:48:21;96696.04;;;24.45;33.65
79465;BME280;68932;47.410;8.232;2023-05-29T11:50:49;96694.67;;;24.46;33.55
79465;BME280;68932;47.410;8.232;2023-05-29T11:53:17;96687.90;;;24.50;33.22
79465;BME280;68932;47.410;8.232;2023-05-29T11:55:46;96687.77;;;24.56;33.82
79465;BME280;68932;47.410;8.232;2023-05-29T11:58:14;96691.30;;;24.62;33.33
79465;BME280;68932;47.410;8.232;2023-05-29T12:00:43;96692.50;;;24.67;32.85
79465;BME280;68932;47.410;8.232;2023-05-29T12:03:12;96694.28;;;24.67;32.02
79465;BME280;68932;47.410;8.232;2023-05-29T12:05:48;96689.93;;;24.66;32.59
79465;BME280;68932;47.410;8.232;2023-05-29T12:08:17;96689.09;;;24.71;32.54
79465;BME280;68932;47.410;8.232;2023-05-29T12:10:50;96688.95;;;24.74;32.07
79465;BME280;68932;47.410;8.232;2023-05-29T12:13:20;96688.34;;;24.77;32.55
79465;BME280;68932;47.410;8.232;2023-05-29T12:15:51;96685.42;;;24.82;32.09
79465;BME280;68932;47.410;8.232;2023-05-29T12:18:21;96681.95;;;24.87;32.18
79465;BME280;68932;47.410;8.232;2023-05-29T12:20:49;96681.07;;;24.93;31.80
79465;BME280;68932;47.410;8.232;2023-05-29T12:23:19;96688.15;;;25.02;31.34
79465;BME280;68932;47.410;8.232;2023-05-29T12:25:48;96690.04;;;25.06;29.98
79465;BME280;68932;47.410;8.232;2023-05-29T12:28:19;96688.09;;;25.05;30.96
79465;BME280;68932;47.410;8.232;2023-05-29T12:30:49;96688.02;;;25.10;31.39
79465;BME280;68932;47.410;8.232;2023-05-29T12:33:29;96689.69;;;25.14;29.73
79465;BME280;68932;47.410;8.232;2023-05-29T12:36:03;96687.65;;;25.19;31.51
79465;BME280;68932;47.410;8.232;2023-05-29T12:38:31;96693.91;;;25.26;30.58
79465;BME280;68932;47.410;8.232;2023-05-29T12:41:00;96689.58;;;25.29;30.70
79465;BME280;68932;47.410;8.232;2023-05-29T12:43:29;96687.36;;;25.33;30.77
79465;BME280;68932;47.410;8.232;2023-05-29T12:45:57;96687.38;;;25.39;30.44
79465;BME280;68932;47.410;8.232;2023-05-29T12:48:29;96686.52;;;25.41;30.47
79465;BME280;68932;47.410;8.232;2023-05-29T12:50:58;96686.81;;;25.43;28.54
79465;BME280;68932;47.410;8.232;2023-05-29T12:53:32;96681.31;;;25.41;28.78
79465;BME280;68932;47.410;8.232;2023-05-29T12:56:01;96679.33;;;25.44;29.69
79465;BME280;68932;47.410;8.232;2023-05-29T12:58:29;96685.07;;;25.51;29.32
79465;BME280;68932;47.410;8.232;2023-05-29T13:00:57;96680.81;;;25.58;29.22
79465;BME280;68932;47.410;8.232;2023-05-29T13:03:26;96679.22;;;25.67;29.77
79465;BME280;68932;47.410;8.232;2023-05-29T13:05:54;96679.77;;;25.72;30.18
79465;BME280;68932;47.410;8.232;2023-05-29T13:08:22;96680.95;;;25.81;30.71
79465;BME280;68932;47.410;8.232;2023-05-29T13:10:51;96675.04;;;25.87;29.67
79465;BME280;68932;47.410;8.232;2023-05-29T13:13:20;96677.71;;;25.90;30.12
79465;BME280;68932;47.410;8.232;2023-05-29T13:15:48;96679.14;;;25.93;28.75